Time;durP1;ratioP1;P1;durP2;ratioP2;P2;SDS_P1;SDS_P2;PMS_P1;PMS_P2;Temp;Humidity;BMP_temperature;BMP_pressure;BME280_temperature;BME280_humidity;BME280_pressure;Samples;Min_cycle;Max_cycle;Signal;HPM_P1;HPM_P2
2022/06/13 00:01:55;;;;;;;6.18;4.28;;;;;;;15.28;78.64;94750.38;5055037;28;20313;-72
2022/06/13 00:04:21;;;;;;;6.45;4.40;;;;;;;15.28;78.81;94758.22;5073009;28;20037;-71
2022/06/13 00:06:46;;;;;;;7.95;4.40;;;;;;;15.26;78.52;94756.75;5055244;28;20024;-71
2022/06/13 00:09:12;;;;;;;6.53;4.10;;;;;;;15.28;78.66;94760.03;5071738;28;20037;-71
2022/06/13 00:11:37;;;;;;;6.55;4.30;;;;;;;15.18;78.77;94760.97;5054924;28;20020;-71
2022/06/13 00:14:03;;;;;;;6.10;4.45;;;;;;;15.18;78.77;94765.38;5054860;28;20036;-71
2022/06/13 00:16:29;;;;;;;5.50;4.25;;;;;;;15.12;79.04;94764.19;5054795;28;20284;-72
2022/06/13 00:18:54;;;;;;;5.70;4.68;;;;;;;15.15;78.86;94769.13;5071473;28;20033;-71
2022/06/13 00:21:25;;;;;;;7.88;5.47;;;;;;;15.11;79.16;94767.00;5072885;28;20028;-71
2022/06/13 00:23:50;;;;;;;5.55;4.93;;;;;;;15.10;79.15;94763.56;5055401;28;20037;-71
2022/06/13 00:26:17;;;;;;;6.43;4.65;;;;;;;15.10;79.14;94763.56;5054870;28;20029;-71
2022/06/13 00:28:43;;;;;;;5.05;4.55;;;;;;;15.18;78.96;94779.31;5072537;28;20036;-72
2022/06/13 00:31:08;;;;;;;8.63;4.70;;;;;;;15.19;78.90;94773.06;5071272;28;20081;-71
2022/06/13 00:33:34;;;;;;;7.35;4.38;;;;;;;15.20;78.74;94779.94;5037938;28;20498;-71
2022/06/13 00:35:59;;;;;;;5.40;4.43;;;;;;;15.22;78.39;94778.97;5072425;28;20028;-71
2022/06/13 00:38:25;;;;;;;7.32;4.63;;;;;;;15.17;78.67;94777.63;5072328;28;20044;-71
2022/06/13 00:40:50;;;;;;;5.28;4.50;;;;;;;15.18;78.76;94784.53;5072246;28;20032;-71
2022/06/13 00:43:16;;;;;;;5.50;4.57;;;;;;;15.13;78.62;94778.94;5071050;28;20044;-71
2022/06/13 00:45:42;;;;;;;5.07;4.32;;;;;;;15.08;78.63;94783.00;5054422;28;20082;-71
2022/06/13 00:48:11;;;;;;;8.60;4.80;;;;;;;15.10;78.64;94787.09;5072321;28;20032;-73
2022/06/13 00:50:48;;;;;;;6.47;4.55;;;;;;;15.06;78.80;94775.28;5070783;28;20082;-72
2022/06/13 00:53:18;;;;;;;5.13;4.10;;;;;;;15.12;78.74;94766.81;5054918;28;20041;-72
2022/06/13 00:55:53;;;;;;;6.47;4.40;;;;;;;15.10;78.65;94768.78;5070416;28;20032;-72
2022/06/13 00:58:19;;;;;;;7.07;4.55;;;;;;;15.10;78.54;94766.16;5054532;28;20143;-72
2022/06/13 01:00:47;;;;;;;5.10;4.60;;;;;;;15.03;78.69;94775.59;5070525;28;20108;-72
2022/06/13 01:03:13;;;;;;;5.60;4.38;;;;;;;14.97;78.78;94769.19;5037475;28;20040;-72
2022/06/13 01:05:40;;;;;;;6.28;4.82;;;;;;;14.99;78.74;94771.66;5053886;28;20448;-72
2022/06/13 01:08:07;;;;;;;6.10;4.70;;;;;;;14.90;79.15;94756.88;5054027;28;20513;-72
2022/06/13 01:13:18;;;;;;;8.02;4.70;;;;;;;14.91;79.26;94759.38;5070844;28;20070;-72
2022/06/13 01:16:15;;;;;;;8.45;4.97;;;;;;;14.95;79.28;94767.72;5037079;28;20032;-72
2022/06/13 01:18:46;;;;;;;6.63;4.55;;;;;;;14.84;79.69;94765.34;5070248;28;20078;-72
2022/06/13 01:21:18;;;;;;;6.03;4.75;;;;;;;14.87;79.53;94772.88;5070410;28;20109;-72
2022/06/13 01:24:19;;;;;;;7.32;4.82;;;;;;;14.82;79.40;94768.16;5071475;28;20040;-72
2022/06/13 01:27:16;;;;;;;7.63;4.55;;;;;;;14.85;79.07;94764.38;5059615;28;20078;-72
2022/06/13 01:30:00;;;;;;;5.97;4.93;;;;;;;14.80;79.31;94762.25;5051397;28;20121;-72
2022/06/13 01:32:34;;;;;;;5.90;4.65;;;;;;;14.85;79.28;94767.00;5051666;28;20033;-72
2022/06/13 01:35:21;;;;;;;7.45;5.28;;;;;;;14.81;79.58;94766.47;5051349;28;20616;-72
2022/06/13 01:52:49;;;;;;;6.35;4.60;;;;;;;15.29;77.50;94772.13;5149036;27;20381;-72
2022/06/13 01:55:17;;;;;;;5.47;4.50;;;;;;;15.22;77.33;94773.75;5137193;27;20055;-72
2022/06/13 01:57:55;;;;;;;8.57;4.63;;;;;;;15.09;77.55;94774.16;5135726;27;20027;-72
2022/06/13 02:00:26;;;;;;;8.13;4.80;;;;;;;15.03;77.80;94772.19;5130128;27;20038;-72
2022/06/13 02:02:56;;;;;;;;;;;;;;;14.99;77.91;94776.91;5111475;28;20024;-73
2022/06/13 02:05:38;;;;;;;5.95;4.80;;;;;;;14.85;78.14;94778.28;5115603;28;19920;-72
2022/06/13 02:08:26;;;;;;;5.78;4.68;;;;;;;14.82;78.46;94773.38;5103197;28;20019;-72
2022/06/13 02:11:08;;;;;;;7.57;5.07;;;;;;;14.73;78.64;94769.84;5107159;28;20410;-72
2022/06/13 02:13:36;;;;;;;9.32;5.18;;;;;;;14.66;78.97;94768.84;5114512;27;20024;-73
2022/06/13 02:16:08;;;;;;;7.07;4.82;;;;;;;14.68;79.00;94781.75;5127261;27;20053;-72
2022/06/13 02:18:35;;;;;;;7.63;5.05;;;;;;;14.71;79.00;94779.66;5110883;28;20504;-72
2022/06/13 02:21:10;;;;;;;7.38;4.60;;;;;;;14.66;78.66;94774.06;5106641;28;20040;-73
2022/06/13 02:23:38;;;;;;;6.72;5.10;;;;;;;14.71;78.58;94782.28;5106335;28;20032;-73
2022/06/13 02:26:08;;;;;;;7.10;4.53;;;;;;;14.67;78.75;94783.53;5091773;28;20038;-72
2022/06/13 02:28:41;;;;;;;5.77;4.67;;;;;;;14.61;78.89;94789.38;5094565;27;20030;-72
2022/06/13 02:31:12;;;;;;;6.68;4.88;;;;;;;14.61;79.16;94778.94;5133068;27;20031;-72
2022/06/13 02:33:43;;;;;;;7.40;5.20;;;;;;;14.61;79.22;94778.94;5104579;28;20277;-72
2022/06/13 02:36:34;;;;;;;6.25;5.10;;;;;;;14.63;79.25;94779.59;5129727;27;20031;-72
2022/06/13 02:39:02;;;;;;;6.25;5.03;;;;;;;14.59;79.56;94778.25;5116698;28;20126;-72
2022/06/13 02:41:33;;;;;;;6.28;5.10;;;;;;;14.60;79.69;94779.06;5110553;27;20479;-72
2022/06/13 02:44:08;;;;;;;6.13;5.07;;;;;;;14.57;79.66;94784.59;5105642;28;20028;-72
2022/06/13 02:46:49;;;;;;;6.63;5.03;;;;;;;14.59;79.02;94786.09;5084487;28;20028;-72
2022/06/13 02:49:16;;;;;;;;;;;;;;;14.54;78.98;94785.72;5140058;27;20027;-72
2022/06/13 02:52:08;;;;;;;5.13;4.63;;;;;;;14.53;79.29;94791.94;5141298;27;19927;-73
2022/06/13 02:54:38;;;;;;;6.63;5.00;;;;;;;14.52;79.29;94791.13;5133198;27;20492;-73
2022/06/13 02:57:24;;;;;;;6.63;4.93;;;;;;;14.50;79.63;94787.00;5133127;27;20031;-72
2022/06/13 02:59:59;;;;;;;6.72;5.18;;;;;;;14.52;79.63;94795.53;5130968;27;20034;-72
2022/06/13 03:02:32;;;;;;;7.50;4.90;;;;;;;14.53;79.56;94790.16;5121442;27;20544;-72
2022/06/13 03:05:02;;;;;;;7.88;4.82;;;;;;;14.53;79.38;94786.72;5113514;27;20042;-72
2022/06/13 03:07:35;;;;;;;6.85;5.03;;;;;;;14.53;79.46;94792.75;5127816;27;20024;-72
2022/06/13 03:10:21;;;;;;;7.00;5.18;;;;;;;14.46;79.53;94804.78;5084657;27;20404;-72
2022/06/13 03:13:02;;;;;;;8.40;5.43;;;;;;;14.49;79.63;94795.81;5114397;27;20053;-73
2022/06/13 03:15:52;;;;;;;5.63;5.03;;;;;;;14.43;79.77;94797.25;5131281;27;20031;-73
2022/06/13 03:18:27;;;;;;;5.45;4.82;;;;;;;14.48;79.82;94802.81;5119578;27;20023;-72
2022/06/13 03:21:25;;;;;;;6.47;5.00;;;;;;;14.51;79.81;94806.91;5103868;27;20038;-73
2022/06/13 03:23:55;;;;;;;6.10;4.90;;;;;;;14.52;80.12;94804.19;5132401;27;20035;-73
2022/06/13 03:26:22;;;;;;;7.90;5.38;;;;;;;14.57;80.07;94803.75;5084740;28;20492;-73
2022/06/13 03:28:51;;;;;;;5.95;5.35;;;;;;;14.64;80.30;94809.19;5078989;27;20031;-72
2022/06/13 03:31:32;;;;;;;8.55;5.05;;;;;;;14.70;80.20;94808.56;5132353;27;20039;-73
2022/06/13 03:34:00;;;;;;;7.03;4.75;;;;;;;14.76;79.94;94813.19;5115677;27;20032;-73
2022/06/13 03:36:30;;;;;;;7.68;5.40;;;;;;;14.77;80.03;94820.06;5098422;27;20031;-72
2022/06/13 03:39:10;;;;;;;5.60;4.85;;;;;;;14.82;79.42;94816.97;5131767;27;20032;-73
2022/06/13 03:41:38;;;;;;;8.73;5.32;;;;;;;14.83;79.56;94816.84;5099658;27;20081;-72
2022/06/13 03:44:15;;;;;;;6.82;5.40;;;;;;;14.84;79.74;94817.66;5105779;28;20031;-73
2022/06/13 03:47:21;;;;;;;7.47;4.95;;;;;;;14.93;79.63;94825.41;5107082;27;20043;-72
2022/06/13 03:49:48;;;;;;;7.03;5.53;;;;;;;14.99;79.33;94818.75;5085068;27;20054;-73
2022/06/13 03:52:14;;;;;;;6.20;5.53;;;;;;;14.99;79.35;94824.00;5132476;27;20496;-73
2022/06/13 03:54:51;;;;;;;6.88;5.55;;;;;;;15.02;79.56;94823.69;5108179;28;20088;-73
2022/06/13 03:57:37;;;;;;;9.02;5.32;;;;;;;15.12;79.25;94819.13;5092381;28;20042;-72
2022/06/13 04:00:08;;;;;;;8.23;5.38;;;;;;;15.25;79.08;94828.38;5125256;27;20038;-73
2022/06/13 04:02:35;;;;;;;5.88;4.68;;;;;;;15.34;79.27;94827.44;5130389;27;20408;-73
2022/06/13 04:05:00;;;;;;;5.95;4.60;;;;;;;15.48;79.20;94823.41;5104293;27;20429;-73
2022/06/13 04:07:28;;;;;;;5.82;5.05;;;;;;;15.72;78.99;94822.75;5115160;27;20035;-72
2022/06/13 04:10:05;;;;;;;5.47;4.72;;;;;;;16.41;77.52;94818.97;5104159;28;20063;-73
2022/06/13 04:12:36;;;;;;;6.63;4.70;;;;;;;17.25;74.68;94821.41;5088202;28;20115;-73
2022/06/13 04:15:16;;;;;;;8.77;4.57;;;;;;;17.97;71.60;94827.41;5109557;27;20032;-72
2022/06/13 04:18:01;;;;;;;7.10;4.10;;;;;;;18.69;69.07;94824.50;5107234;27;20031;-73
2022/06/13 04:20:39;;;;;;;6.18;3.80;;;;;;;19.38;66.81;94821.72;5129003;27;20481;-73
2022/06/13 04:23:29;;;;;;;5.45;3.88;;;;;;;20.06;64.34;94816.38;5109375;28;20209;-71
2022/06/13 04:26:14;;;;;;;6.13;3.70;;;;;;;20.69;61.76;94816.63;5121323;27;20084;-71
2022/06/13 04:28:55;;;;;;;4.22;3.65;;;;;;;21.32;59.25;94817.53;5114114;27;20038;-71
2022/06/13 04:31:21;;;;;;;5.60;3.60;;;;;;;21.41;58.85;94810.31;5090947;28;20036;-71
2022/06/13 04:33:54;;;;;;;4.78;3.70;;;;;;;21.53;58.82;94805.28;5104213;28;20038;-71
2022/06/13 04:36:19;;;;;;;5.45;3.63;;;;;;;22.29;56.51;94808.69;5110841;27;20093;-71
2022/06/13 04:38:47;;;;;;;5.15;3.70;;;;;;;22.51;54.99;94808.53;5067771;28;20489;-70
2022/06/13 04:41:12;;;;;;;4.30;3.58;;;;;;;22.47;55.49;94804.66;5082818;28;20058;-71
2022/06/13 04:43:39;;;;;;;3.78;3.35;;;;;;;22.52;56.07;94807.53;5099227;27;20481;-71
2022/06/13 04:46:18;;;;;;;6.03;3.53;;;;;;;22.39;56.65;94807.50;5105296;28;20040;-71
2022/06/13 04:48:45;;;;;;;4.10;3.70;;;;;;;22.28;56.22;94801.75;5100287;28;20027;-71
2022/06/13 04:51:19;;;;;;;4.68;3.42;;;;;;;22.30;55.80;94812.97;5110543;28;20052;-71
2022/06/13 04:53:53;;;;;;;5.85;3.55;;;;;;;22.19;56.81;94812.72;5093876;28;20039;-71
2022/06/13 04:56:20;;;;;;;5.25;4.00;;;;;;;22.11;56.91;94804.94;5110785;28;20031;-70
2022/06/13 04:58:46;;;;;;;5.72;4.28;;;;;;;22.17;57.07;94812.88;5093415;28;20028;-71
2022/06/13 05:01:15;;;;;;;4.78;3.97;;;;;;;22.09;57.63;94797.19;5110093;28;20490;-71
2022/06/13 05:03:43;;;;;;;4.85;4.05;;;;;;;22.03;57.69;94800.63;5093231;28;20396;-70
2022/06/13 05:06:20;;;;;;;4.57;4.05;;;;;;;22.11;57.78;94804.94;5093566;28;20024;-71
2022/06/13 05:08:51;;;;;;;4.78;3.80;;;;;;;21.98;57.30;94795.13;5109929;28;20515;-71
2022/06/13 05:11:19;;;;;;;4.50;4.10;;;;;;;22.03;56.33;94806.72;5107892;28;20532;-70
2022/06/13 05:13:45;;;;;;;6.05;4.05;;;;;;;21.63;57.29;94792.53;5093187;28;20023;-70
2022/06/13 05:16:38;;;;;;;5.82;3.92;;;;;;;21.47;59.36;94806.06;5075335;28;20080;-71
2022/06/13 05:19:24;;;;;;;6.95;4.28;;;;;;;21.07;61.73;94808.41;5113236;27;20036;-71
2022/06/13 05:22:05;;;;;;;4.88;3.50;;;;;;;20.75;62.77;94810.56;5111833;27;20062;-71
2022/06/13 05:24:33;;;;;;;;;;;;;;;20.53;63.33;94815.03;5113237;27;20031;-72
2022/06/13 05:27:01;;;;;;;5.82;4.38;;;;;;;20.19;64.87;94813.03;5106673;27;20312;-71
2022/06/13 05:29:28;;;;;;;6.32;4.10;;;;;;;20.17;64.94;94812.41;5117041;27;20552;-72
2022/06/13 05:31:53;;;;;;;5.35;4.15;;;;;;;20.10;66.07;94812.34;5128934;27;20035;-72
2022/06/13 05:34:37;;;;;;;4.63;3.75;;;;;;;20.20;66.45;94801.50;5127128;27;20023;-72
2022/06/13 05:37:03;;;;;;;6.22;4.40;;;;;;;20.20;66.13;94801.50;5077491;28;20031;-72
2022/06/13 05:39:29;;;;;;;5.18;4.68;;;;;;;20.18;65.64;94787.69;5110143;28;20105;-72
2022/06/13 05:41:54;;;;;;;5.10;4.60;;;;;;;20.35;66.10;94809.38;5089772;28;20088;-72
2022/06/13 05:44:20;;;;;;;6.93;4.65;;;;;;;20.44;64.94;94800.31;5092993;28;20027;-72
2022/06/13 05:46:45;;;;;;;5.03;4.22;;;;;;;20.46;63.44;94808.88;5113898;28;20032;-72
2022/06/13 05:49:13;;;;;;;4.82;4.15;;;;;;;20.51;64.08;94809.13;5112845;28;20023;-72
2022/06/13 05:51:41;;;;;;;7.85;4.75;;;;;;;20.49;62.45;94804.03;5128731;28;20126;-72
2022/06/13 05:54:11;;;;;;;6.28;3.97;;;;;;;20.48;62.09;94807.69;5104954;28;20034;-72
2022/06/13 05:56:37;;;;;;;4.28;3.88;;;;;;;20.55;61.73;94804.31;5126302;28;20042;-72
2022/06/13 05:59:02;;;;;;;5.18;4.30;;;;;;;20.67;63.47;94802.78;5122956;27;20031;-72
2022/06/13 06:01:28;;;;;;;6.07;4.30;;;;;;;20.82;62.76;94803.53;5113282;28;20032;-72
2022/06/13 06:03:53;;;;;;;4.00;3.60;;;;;;;20.88;60.75;94800.13;5111453;28;20042;-72
2022/06/13 06:06:21;;;;;;;5.13;4.60;;;;;;;20.82;60.23;94800.91;5087362;28;20036;-72
2022/06/13 06:08:46;;;;;;;6.40;4.97;;;;;;;20.76;60.59;94793.75;5109106;27;20038;-72
2022/06/13 06:11:12;;;;;;;6.70;4.88;;;;;;;20.96;60.79;94807.91;5122883;28;20035;-72
2022/06/13 06:13:37;;;;;;;6.60;4.55;;;;;;;21.06;60.95;94812.03;5127755;28;20447;-72
2022/06/13 06:16:03;;;;;;;6.55;5.03;;;;;;;21.04;60.36;94816.72;5119317;28;20408;-72
2022/06/13 06:18:29;;;;;;;8.07;5.30;;;;;;;21.15;61.24;94821.47;5123498;28;20028;-73
2022/06/13 06:20:55;;;;;;;8.05;6.20;;;;;;;21.27;61.40;94819.94;5081528;28;20149;-72
2022/06/13 06:23:20;;;;;;;7.78;6.40;;;;;;;21.42;61.20;94825.13;5127528;28;20027;-72
2022/06/13 06:25:48;;;;;;;9.85;6.60;;;;;;;21.45;61.27;94816.81;5113117;28;20032;-72
2022/06/13 06:28:24;;;;;;;7.07;5.43;;;;;;;21.59;59.09;94829.13;5130736;27;20062;-72
2022/06/13 06:30:54;;;;;;;7.95;5.85;;;;;;;21.46;60.55;94825.59;5095153;28;20683;-72
2022/06/13 06:33:21;;;;;;;7.35;6.65;;;;;;;21.38;62.16;94815.97;5124887;27;20494;-74
2022/06/13 06:35:48;;;;;;;9.82;6.90;;;;;;;21.42;61.68;94820.69;5114765;28;20028;-71
2022/06/13 06:38:13;;;;;;;8.63;7.80;;;;;;;21.53;61.17;94823.78;5080466;28;20464;-72
2022/06/13 06:40:39;;;;;;;8.35;7.50;;;;;;;21.54;59.71;94814.84;5108792;27;20039;-72
2022/06/13 06:43:05;;;;;;;10.20;7.10;;;;;;;21.52;59.89;94814.22;5095409;28;20065;-74
2022/06/13 06:45:30;;;;;;;8.35;7.47;;;;;;;21.55;60.52;94821.75;5092838;28;20046;-74
2022/06/13 06:47:56;;;;;;;7.75;6.95;;;;;;;21.65;60.49;94827.53;5112905;28;20665;-75
2022/06/13 06:50:32;;;;;;;8.30;7.18;;;;;;;21.58;61.37;94831.94;5094745;28;20517;-74
2022/06/13 06:52:58;;;;;;;9.00;8.05;;;;;;;21.58;61.30;94827.47;5099552;27;20038;-73
2022/06/13 07:00:55;;;;;;;9.35;8.45;;;;;;;21.80;61.00;94830.03;5087456;28;20127;-73
2022/06/13 07:03:20;;;;;;;10.35;8.73;;;;;;;21.84;60.63;94832.09;5095593;28;20020;-73
2022/06/13 07:05:46;;;;;;;10.35;8.00;;;;;;;21.85;61.00;94822.34;5072369;28;20042;-74
2022/06/13 07:08:13;;;;;;;10.07;9.07;;;;;;;22.03;62.01;94821.78;5091134;28;20488;-73
2022/06/13 07:10:38;;;;;;;9.63;8.63;;;;;;;21.97;59.29;94809.38;5074269;28;20078;-73
2022/06/13 07:13:04;;;;;;;9.90;8.90;;;;;;;21.85;59.37;94814.41;5090139;28;20475;-72
2022/06/13 07:15:29;;;;;;;12.77;8.10;;;;;;;21.70;60.84;94803.94;5090321;28;20085;-73
2022/06/13 07:17:55;;;;;;;7.88;7.07;;;;;;;21.93;61.34;94811.59;5091481;28;20409;-73
2022/06/13 07:20:21;;;;;;;9.40;8.20;;;;;;;22.03;60.96;94808.56;5056695;28;20029;-74
2022/06/13 07:22:47;;;;;;;11.65;8.23;;;;;;;22.15;61.56;94807.00;5073924;28;20454;-74
2022/06/13 07:25:18;;;;;;;10.43;9.15;;;;;;;22.07;58.94;94805.34;5074129;28;20039;-73
2022/06/13 07:27:44;;;;;;;13.07;8.07;;;;;;;22.12;59.53;94812.69;5092415;28;20055;-74
2022/06/13 07:30:11;;;;;;;8.55;6.75;;;;;;;22.26;58.99;94814.38;5075656;28;20141;-74
2022/06/13 07:32:36;;;;;;;6.35;5.75;;;;;;;22.36;59.35;94808.69;5093831;28;20036;-74
2022/06/13 07:35:02;;;;;;;7.72;5.63;;;;;;;22.56;57.47;94806.09;5074704;28;20032;-74
2022/06/13 07:40:12;;;;;;;7.43;6.13;;;;;;;22.88;57.66;94816.94;5077879;28;20540;-74
2022/06/13 07:42:46;;;;;;;7.95;6.03;;;;;;;22.97;55.11;94810.44;5075251;28;20032;-74
2022/06/13 07:45:14;;;;;;;8.48;6.47;;;;;;;23.09;54.95;94818.59;5076034;28;20085;-74
2022/06/13 07:47:40;;;;;;;7.93;6.40;;;;;;;23.19;54.70;94824.31;5091808;28;20020;-74
2022/06/13 07:50:06;;;;;;;7.43;5.75;;;;;;;23.28;54.80;94817.75;5074687;28;20059;-74
2022/06/13 07:52:32;;;;;;;7.05;5.78;;;;;;;23.39;53.73;94817.13;5091903;28;20028;-74
2022/06/13 07:54:57;;;;;;;9.25;5.80;;;;;;;23.49;54.70;94807.97;5091918;28;20444;-74
2022/06/13 07:57:23;;;;;;;5.55;5.05;;;;;;;23.63;53.26;94815.69;5074724;28;20069;-74
2022/06/13 07:59:48;;;;;;;6.03;4.85;;;;;;;23.78;52.13;94812.00;5091683;28;20508;-74
2022/06/13 08:02:15;;;;;;;10.02;5.47;;;;;;;23.90;54.75;94812.16;5092902;28;20020;-74
2022/06/13 08:04:41;;;;;;;8.52;5.55;;;;;;;23.88;51.74;94807.06;5058219;28;20078;-74
2022/06/13 08:07:09;;;;;;;7.07;5.45;;;;;;;23.82;54.02;94807.88;5091257;28;20459;-74
2022/06/13 08:09:34;;;;;;;9.63;5.38;;;;;;;23.89;51.91;94810.53;5091622;28;20122;-74
2022/06/13 08:12:00;;;;;;;8.02;5.03;;;;;;;23.88;52.09;94816.88;5091490;28;20031;-74
2022/06/13 08:14:26;;;;;;;5.13;4.18;;;;;;;23.88;51.81;94819.53;5091490;28;20035;-73
2022/06/13 08:16:52;;;;;;;4.90;3.90;;;;;;;23.84;51.52;94806.66;5092288;28;20032;-74
2022/06/13 08:19:18;;;;;;;6.20;4.05;;;;;;;23.95;52.68;94799.88;5092620;28;20413;-74
2022/06/13 08:21:43;;;;;;;7.00;4.22;;;;;;;24.08;52.90;94821.06;5092797;28;20043;-74
2022/06/13 08:24:09;;;;;;;5.40;4.38;;;;;;;24.21;51.18;94811.41;5091550;28;20020;-74
2022/06/13 08:26:34;;;;;;;4.97;4.40;;;;;;;24.28;50.22;94825.47;5091197;28;20035;-74
2022/06/13 08:29:00;;;;;;;6.00;4.70;;;;;;;24.26;51.27;94817.72;5091234;28;20035;-74
2022/06/13 08:31:26;;;;;;;8.50;4.70;;;;;;;24.29;49.33;94822.63;5074037;28;20028;-74
2022/06/13 08:33:51;;;;;;;8.05;4.65;;;;;;;24.30;50.63;94810.97;5091290;28;20028;-74
2022/06/13 08:36:17;;;;;;;5.18;4.30;;;;;;;24.47;52.35;94816.63;5074139;28;20040;-74
2022/06/13 08:38:42;;;;;;;5.53;4.45;;;;;;;24.56;48.33;94816.38;5074312;28;20050;-74
2022/06/13 08:41:10;;;;;;;4.45;3.92;;;;;;;24.44;48.91;94824.22;5091169;28;20425;-74
2022/06/13 08:43:48;;;;;;;7.05;4.30;;;;;;;24.18;48.86;94827.75;5092290;28;20478;-74
2022/06/13 08:46:48;;;;;;;5.45;4.22;;;;;;;24.16;49.27;94824.53;5092318;28;20035;-74
2022/06/13 08:49:26;;;;;;;5.22;4.60;;;;;;;24.26;49.47;94824.84;5059361;28;20562;-74
2022/06/13 08:52:10;;;;;;;6.82;4.65;;;;;;;24.38;51.41;94823.19;5090768;28;20417;-74
2022/06/13 08:54:37;;;;;;;8.68;4.85;;;;;;;24.38;50.44;94806.44;5090668;28;20020;-74
2022/06/13 08:57:08;;;;;;;6.10;4.90;;;;;;;24.52;50.15;94814.16;5057236;28;20113;-74
2022/06/13 08:59:36;;;;;;;5.80;4.68;;;;;;;24.61;50.07;94811.25;5090690;28;20024;-75
2022/06/13 09:02:16;;;;;;;5.25;3.90;;;;;;;24.64;47.92;94821.44;5057049;28;20036;-74
2022/06/13 09:05:12;;;;;;;6.25;3.75;;;;;;;24.71;49.26;94809.75;5090548;28;20024;-74
2022/06/13 09:07:59;;;;;;;6.03;3.97;;;;;;;24.82;48.26;94818.84;5037878;28;20127;-74
2022/06/13 09:10:55;;;;;;;6.05;3.75;;;;;;;24.81;48.99;94805.78;5090691;28;20102;-74
2022/06/13 09:13:32;;;;;;;6.10;3.90;;;;;;;24.52;48.19;94808.84;5087376;28;20455;-74
2022/06/13 09:16:15;;;;;;;5.75;4.10;;;;;;;24.34;47.88;94815.84;5074993;28;20032;-74
2022/06/13 09:18:50;;;;;;;4.85;3.65;;;;;;;24.33;50.19;94814.22;5073530;28;20028;-74
2022/06/13 09:21:53;;;;;;;6.00;4.20;;;;;;;24.34;49.80;94808.69;5090401;28;20534;-74
2022/06/13 09:24:52;;;;;;;5.28;4.00;;;;;;;24.39;47.91;94813.38;5017619;28;20033;-74
2022/06/13 09:27:27;;;;;;;7.53;3.92;;;;;;;24.43;47.98;94810.13;5091584;28;20070;-74
2022/06/13 09:30:02;;;;;;;4.75;4.05;;;;;;;24.54;46.92;94803.28;5056956;28;20182;-74
2022/06/13 09:32:49;;;;;;;4.72;4.22;;;;;;;24.70;48.41;94808.09;5073367;28;20051;-74
2022/06/13 09:35:23;;;;;;;4.97;4.00;;;;;;;24.75;49.47;94802.97;5073937;28;20055;-74
2022/06/13 09:38:02;;;;;;;7.75;4.18;;;;;;;24.87;48.95;94789.78;5056883;28;20034;-74
2022/06/13 09:41:03;;;;;;;4.07;3.65;;;;;;;25.08;49.03;94795.78;5075198;28;20036;-75
2022/06/13 09:43:46;;;;;;;7.13;4.05;;;;;;;25.03;46.41;94796.41;5077915;28;20043;-74
2022/06/13 09:46:25;;;;;;;8.57;3.85;;;;;;;24.98;48.83;94799.72;5091307;28;20106;-74
2022/06/13 09:49:02;;;;;;;6.22;4.18;;;;;;;25.09;46.73;94797.41;5089966;28;20513;-74
2022/06/13 09:51:42;;;;;;;6.70;3.90;;;;;;;25.14;46.25;94794.91;5091064;28;20052;-74
2022/06/13 09:54:29;;;;;;;6.07;4.05;;;;;;;25.13;45.26;94794.09;5089997;28;20024;-74
2022/06/13 09:56:57;;;;;;;7.18;4.40;;;;;;;25.10;46.08;94794.53;5091442;28;20085;-74
2022/06/13 09:59:48;;;;;;;5.03;3.75;;;;;;;25.17;49.15;94797.16;5090237;28;20406;-74
2022/06/13 10:02:25;;;;;;;5.22;4.20;;;;;;;25.08;45.47;94791.28;5091296;28;20035;-74
2022/06/13 10:05:09;;;;;;;4.55;4.10;;;;;;;25.07;47.58;94794.94;5061298;28;20400;-74
2022/06/13 10:07:37;;;;;;;4.65;3.60;;;;;;;25.14;47.42;94790.44;5095308;28;20028;-74
2022/06/13 10:10:11;;;;;;;4.78;3.92;;;;;;;25.27;45.79;94789.50;5095091;28;20066;-74
2022/06/13 10:13:03;;;;;;;5.35;3.78;;;;;;;25.25;47.15;94794.22;5093966;28;20024;-74
2022/06/13 10:15:54;;;;;;;4.50;4.10;;;;;;;25.23;44.40;94788.31;5078367;28;20040;-74
2022/06/13 10:18:35;;;;;;;4.78;3.85;;;;;;;25.24;47.28;94789.09;5093928;28;20067;-74
2022/06/13 10:21:12;;;;;;;5.40;4.03;;;;;;;25.30;47.03;94783.75;5095132;28;20036;-74
2022/06/13 10:23:44;;;;;;;4.97;3.80;;;;;;;25.19;47.12;94782.63;5093793;28;20024;-74
2022/06/13 10:26:10;;;;;;;5.55;3.88;;;;;;;25.24;48.90;94781.13;5076619;28;20495;-74
2022/06/13 10:28:53;;;;;;;10.05;4.45;;;;;;;25.31;45.32;94782.72;5094855;28;20107;-74
2022/06/13 10:31:43;;;;;;;5.68;3.90;;;;;;;25.22;47.03;94768.09;5095195;28;20036;-74
2022/06/13 10:34:38;;;;;;;4.65;4.20;;;;;;;25.32;47.94;94771.03;5094784;28;20577;-74
2022/06/13 10:37:04;;;;;;;5.80;3.75;;;;;;;25.42;46.28;94770.53;5094597;28;20032;-74
2022/06/13 10:39:29;;;;;;;4.22;3.83;;;;;;;25.48;47.71;94764.34;5093330;28;20028;-74
2022/06/13 10:41:58;;;;;;;5.30;3.75;;;;;;;25.65;48.83;94764.56;5093495;28;20032;-74
2022/06/13 10:44:24;;;;;;;9.15;4.00;;;;;;;25.66;46.58;94755.56;5093463;28;20036;-74
2022/06/13 10:46:50;;;;;;;4.45;3.88;;;;;;;25.67;45.53;94759.84;5076066;28;20040;-74
2022/06/13 10:49:16;;;;;;;4.85;3.90;;;;;;;25.48;44.34;94756.34;5094586;28;20094;-74
2022/06/13 10:51:41;;;;;;;5.90;3.88;;;;;;;25.37;44.74;94744.59;5093142;28;20166;-74
2022/06/13 10:54:10;;;;;;;4.18;3.78;;;;;;;25.41;47.06;94743.16;5059573;28;20031;-74
2022/06/13 10:56:53;;;;;;;6.78;4.15;;;;;;;25.44;45.06;94738.44;5076447;28;20032;-74
2022/06/13 10:59:33;;;;;;;4.78;4.30;;;;;;;25.41;45.38;94732.50;5077586;28;20097;-74
2022/06/13 11:02:01;;;;;;;4.75;3.88;;;;;;;25.41;44.02;94737.84;5076194;28;20051;-74
2022/06/13 11:04:28;;;;;;;8.73;4.47;;;;;;;25.38;47.92;94727.63;5076402;28;20494;-74
2022/06/13 11:06:56;;;;;;;5.80;4.53;;;;;;;25.52;46.90;94728.31;5093150;28;20040;-74
2022/06/13 11:09:41;;;;;;;5.10;4.20;;;;;;;25.51;45.92;94725.84;5092768;28;20020;-74
2022/06/13 11:12:18;;;;;;;4.75;4.18;;;;;;;25.39;43.27;94721.28;5092581;28;20047;-74
2022/06/13 11:23:04;;;;;;;5.10;4.32;;;;;;;25.57;43.47;94698.38;5078915;28;20047;-74
2022/06/13 11:25:31;;;;;;;4.28;3.88;;;;;;;25.52;44.71;94699.06;5075802;28;20032;-74
2022/06/13 11:28:00;;;;;;;5.13;3.80;;;;;;;25.70;43.68;94695.56;5075853;28;20032;-74
2022/06/13 11:30:25;;;;;;;4.60;4.20;;;;;;;25.71;44.98;94699.03;5092757;28;20123;-74
2022/06/13 11:33:17;;;;;;;7.47;4.30;;;;;;;25.73;45.04;94697.78;5093692;28;20099;-74
2022/06/13 11:35:43;;;;;;;4.80;4.30;;;;;;;25.72;42.29;94685.53;5068824;28;20048;-74
2022/06/13 11:38:18;;;;;;;5.72;4.20;;;;;;;25.70;42.87;94692.91;5093859;28;20095;-74
2022/06/13 11:41:20;;;;;;;7.15;4.40;;;;;;;25.76;44.63;94685.88;5092411;28;20281;-74
2022/06/13 11:44:00;;;;;;;4.85;4.35;;;;;;;25.82;40.84;94685.78;5060411;28;20063;-74
2022/06/13 11:46:54;;;;;;;4.50;4.03;;;;;;;25.81;40.82;94686.81;5093792;28;20043;-74
2022/06/13 11:49:24;;;;;;;6.07;4.30;;;;;;;25.89;40.58;94682.28;5092269;28;20028;-74
2022/06/13 11:52:09;;;;;;;5.55;4.13;;;;;;;25.79;42.15;94683.56;5091919;28;20056;-74
2022/06/13 11:54:39;;;;;;;4.75;4.30;;;;;;;25.77;42.59;94677.69;5092305;28;20024;-74
2022/06/13 11:57:14;;;;;;;5.15;4.45;;;;;;;25.81;41.94;94675.38;5075566;28;20070;-74
2022/06/13 11:59:53;;;;;;;5.13;4.15;;;;;;;25.80;44.31;94669.25;5093085;28;20962;-74
2022/06/13 12:02:25;;;;;;;5.25;3.97;;;;;;;25.69;43.91;94663.88;5076435;28;20056;-74
2022/06/13 12:04:55;;;;;;;6.53;4.85;;;;;;;25.58;44.54;94657.47;5074775;28;20055;-74
2022/06/13 12:07:31;;;;;;;6.32;4.20;;;;;;;25.69;43.21;94670.00;5075135;28;20027;-74
2022/06/13 12:09:59;;;;;;;5.20;4.40;;;;;;;25.62;43.56;94664.75;5058277;28;20040;-74
2022/06/13 12:12:26;;;;;;;7.22;4.53;;;;;;;25.62;43.89;94655.97;5091707;28;20026;-74
2022/06/13 12:14:52;;;;;;;5.47;4.47;;;;;;;25.69;45.80;94653.25;5091708;28;20059;-74
2022/06/13 12:17:29;;;;;;;6.75;4.50;;;;;;;25.78;43.99;94647.38;5074521;28;20486;-74
2022/06/13 12:20:02;;;;;;;7.45;4.32;;;;;;;25.80;43.73;94645.31;5074649;28;20040;-74
2022/06/13 12:22:34;;;;;;;7.57;4.50;;;;;;;25.77;44.77;94643.09;5074659;28;20448;-74
2022/06/13 12:25:18;;;;;;;4.97;4.30;;;;;;;25.75;44.90;94641.69;5091903;28;20035;-74
2022/06/13 12:27:55;;;;;;;5.68;4.28;;;;;;;25.77;45.01;94639.59;5075017;28;20036;-74
2022/06/13 12:30:38;;;;;;;5.32;4.40;;;;;;;25.90;44.50;94643.97;5092921;28;20040;-74
2022/06/13 12:33:18;;;;;;;5.68;4.40;;;;;;;25.97;46.29;94636.72;5092627;28;20032;-74
2022/06/13 12:35:59;;;;;;;;;;;;;;;25.97;44.31;94644.72;5091595;28;20024;-74